首页
METAR-TAF:

METAR-TAF

机场 :

Warren Field Airport

华盛顿, 北卡罗来纳州, 美国

纬度: 35-34-14N, 经度: 077-02-59W, 海拔: 12米

当前天气观测

该预报发布于15分钟前的20:00 UTC
风速3节,风向西北
温度 17°C
湿度 68%
气压 1015 hPa
能見度: 16.1公里
多云层高于2900英尺
多云层高于3500英尺
阴天层高于5500英尺

METAR: KOCW 202000Z AUTO 32003KT 10SM BKN029 BKN035 OVC055 17/11 A2998 RMK AO2 T01650105

时间: 15:15 (20:15 UTC)


TAF: 丢失

超过4000个机场的气象观测和天气预报(METAR&TAF报告)。

可查询的气象台以黄色和红色小点在地图上表示。

将鼠标移到小点上方,可查看气象台名称。

然后点击查看天气观测和预报。

如需切换地图:点击带黑十字的绿色按钮放大地图;点击带横线的绿色按钮缩小地图;或者点击绿色箭头查看邻近地区的地图。


METAR-TAF: